Hitchins, Kentucky
Current Conditions -  °F | °C
As of 12:51 AM on Thursday 23 Oct 2014 (Local Time) from KHTS Reporting Station
Overcast Overcast  
Wind Chill: 45°   Ceiling: 3000
Heat Index: 48°   Visibility: 10mi
Dew Point: 40°   Wind: 6mph
Humidity: 74%   Direction: 360°N
Pressure: 30.21"   Gusts: NA
Location:  38.28°N, 82.92°W
Report Text: KHTS 230451Z 36005KT 10SM OVC030 09/04 A3021 RMK AO2 SLP231 T00890044 401060072
Loading
Personal Weather Stations






























Interactive Weather Map
Tropical Storm Tracking
New forecast layout! Learn more

10-Day Weather Forecast

Advertisements
Track Severe Weather on mobile